sensor_id;sensor_type;location;lat;lon;timestamp;P1;durP1;ratioP1;P2;durP2;ratioP2
5823;SDS011;2938;52.254;12.988;2022-12-18T00:01:37;83.90;;;34.67;;
5823;SDS011;2938;52.254;12.988;2022-12-18T00:04:06;86.55;;;32.35;;
5823;SDS011;2938;52.254;12.988;2022-12-18T00:06:44;85.10;;;33.08;;
5823;SDS011;2938;52.254;12.988;2022-12-18T00:09:09;109.05;;;35.90;;
5823;SDS011;2938;52.254;12.988;2022-12-18T00:11:35;82.07;;;33.30;;
5823;SDS011;2938;52.254;12.988;2022-12-18T00:14:00;100.00;;;33.72;;
5823;SDS011;2938;52.254;12.988;2022-12-18T00:16:26;92.80;;;35.33;;
5823;SDS011;2938;52.254;12.988;2022-12-18T00:18:53;96.38;;;35.78;;
5823;SDS011;2938;52.254;12.988;2022-12-18T00:21:19;98.78;;;37.33;;
5823;SDS011;2938;52.254;12.988;2022-12-18T00:23:45;98.10;;;36.65;;
5823;SDS011;2938;52.254;12.988;2022-12-18T00:26:31;91.55;;;34.90;;
5823;SDS011;2938;52.254;12.988;2022-12-18T00:28:58;98.07;;;34.72;;
5823;SDS011;2938;52.254;12.988;2022-12-18T00:31:25;103.25;;;34.03;;
5823;SDS011;2938;52.254;12.988;2022-12-18T00:33:51;90.13;;;34.92;;
5823;SDS011;2938;52.254;12.988;2022-12-18T00:36:19;111.43;;;36.88;;
5823;SDS011;2938;52.254;12.988;2022-12-18T00:38:46;102.18;;;33.83;;
5823;SDS011;2938;52.254;12.988;2022-12-18T00:41:12;104.05;;;35.00;;
5823;SDS011;2938;52.254;12.988;2022-12-18T00:43:39;99.90;;;35.88;;
5823;SDS011;2938;52.254;12.988;2022-12-18T00:46:04;93.32;;;33.75;;
5823;SDS011;2938;52.254;12.988;2022-12-18T00:48:30;89.03;;;35.55;;
5823;SDS011;2938;52.254;12.988;2022-12-18T00:50:56;104.13;;;35.85;;
5823;SDS011;2938;52.254;12.988;2022-12-18T00:53:22;90.95;;;33.45;;
5823;SDS011;2938;52.254;12.988;2022-12-18T00:55:47;91.75;;;32.60;;
5823;SDS011;2938;52.254;12.988;2022-12-18T00:58:13;89.65;;;31.45;;
5823;SDS011;2938;52.254;12.988;2022-12-18T01:00:39;95.40;;;34.72;;
5823;SDS011;2938;52.254;12.988;2022-12-18T01:03:05;98.05;;;34.85;;
5823;SDS011;2938;52.254;12.988;2022-12-18T01:05:31;81.05;;;35.63;;
5823;SDS011;2938;52.254;12.988;2022-12-18T01:07:56;89.18;;;33.03;;
5823;SDS011;2938;52.254;12.988;2022-12-18T01:10:21;92.43;;;35.72;;
5823;SDS011;2938;52.254;12.988;2022-12-18T01:12:47;82.28;;;33.47;;
5823;SDS011;2938;52.254;12.988;2022-12-18T01:15:13;109.30;;;38.58;;
5823;SDS011;2938;52.254;12.988;2022-12-18T01:17:39;104.07;;;41.47;;
5823;SDS011;2938;52.254;12.988;2022-12-18T01:20:04;102.22;;;37.50;;
5823;SDS011;2938;52.254;12.988;2022-12-18T01:22:30;89.47;;;33.10;;
5823;SDS011;2938;52.254;12.988;2022-12-18T01:24:58;85.60;;;34.95;;
5823;SDS011;2938;52.254;12.988;2022-12-18T01:27:23;91.75;;;37.60;;
5823;SDS011;2938;52.254;12.988;2022-12-18T01:29:49;82.80;;;33.45;;
5823;SDS011;2938;52.254;12.988;2022-12-18T01:32:14;98.70;;;37.85;;
5823;SDS011;2938;52.254;12.988;2022-12-18T01:34:39;85.13;;;32.13;;
5823;SDS011;2938;52.254;12.988;2022-12-18T01:37:05;93.72;;;33.85;;
5823;SDS011;2938;52.254;12.988;2022-12-18T01:39:30;91.13;;;32.38;;
5823;SDS011;2938;52.254;12.988;2022-12-18T01:41:57;84.50;;;33.13;;
5823;SDS011;2938;52.254;12.988;2022-12-18T01:47:30;100.43;;;37.80;;
5823;SDS011;2938;52.254;12.988;2022-12-18T01:52:46;97.43;;;34.35;;
5823;SDS011;2938;52.254;12.988;2022-12-18T01:55:16;92.75;;;31.58;;
5823;SDS011;2938;52.254;12.988;2022-12-18T01:57:43;96.90;;;33.72;;
5823;SDS011;2938;52.254;12.988;2022-12-18T02:00:13;103.25;;;35.65;;
5823;SDS011;2938;52.254;12.988;2022-12-18T02:02:43;73.40;;;30.45;;
5823;SDS011;2938;52.254;12.988;2022-12-18T02:05:10;94.20;;;35.30;;
5823;SDS011;2938;52.254;12.988;2022-12-18T02:07:59;99.85;;;35.35;;
5823;SDS011;2938;52.254;12.988;2022-12-18T02:10:54;90.80;;;35.45;;
5823;SDS011;2938;52.254;12.988;2022-12-18T02:16:15;103.25;;;38.65;;
5823;SDS011;2938;52.254;12.988;2022-12-18T02:18:45;103.82;;;40.42;;
5823;SDS011;2938;52.254;12.988;2022-12-18T02:21:20;108.45;;;38.08;;
5823;SDS011;2938;52.254;12.988;2022-12-18T02:23:56;93.07;;;34.55;;
5823;SDS011;2938;52.254;12.988;2022-12-18T02:26:45;65.40;;;28.67;;
5823;SDS011;2938;52.254;12.988;2022-12-18T02:29:13;98.22;;;37.45;;
5823;SDS011;2938;52.254;12.988;2022-12-18T02:31:43;85.63;;;36.33;;
5823;SDS011;2938;52.254;12.988;2022-12-18T02:34:11;99.47;;;40.08;;
5823;SDS011;2938;52.254;12.988;2022-12-18T02:36:38;94.55;;;33.45;;
5823;SDS011;2938;52.254;12.988;2022-12-18T02:39:05;92.68;;;37.40;;
5823;SDS011;2938;52.254;12.988;2022-12-18T02:41:31;101.10;;;38.28;;
5823;SDS011;2938;52.254;12.988;2022-12-18T02:43:58;97.00;;;36.28;;
5823;SDS011;2938;52.254;12.988;2022-12-18T02:49:40;91.47;;;34.40;;
5823;SDS011;2938;52.254;12.988;2022-12-18T02:57:31;80.00;;;32.33;;
5823;SDS011;2938;52.254;12.988;2022-12-18T03:00:03;76.47;;;28.83;;
5823;SDS011;2938;52.254;12.988;2022-12-18T03:02:49;90.55;;;31.00;;
5823;SDS011;2938;52.254;12.988;2022-12-18T03:05:27;86.07;;;30.88;;
5823;SDS011;2938;52.254;12.988;2022-12-18T03:07:57;100.03;;;36.03;;
5823;SDS011;2938;52.254;12.988;2022-12-18T03:10:28;97.75;;;32.85;;
5823;SDS011;2938;52.254;12.988;2022-12-18T03:12:59;85.70;;;33.33;;
5823;SDS011;2938;52.254;12.988;2022-12-18T03:15:31;86.50;;;33.95;;
5823;SDS011;2938;52.254;12.988;2022-12-18T03:18:08;82.03;;;31.77;;
5823;SDS011;2938;52.254;12.988;2022-12-18T03:20:39;79.55;;;31.15;;
5823;SDS011;2938;52.254;12.988;2022-12-18T03:23:09;91.25;;;31.65;;
5823;SDS011;2938;52.254;12.988;2022-12-18T03:25:37;87.15;;;32.05;;
5823;SDS011;2938;52.254;12.988;2022-12-18T03:28:05;95.35;;;31.73;;
5823;SDS011;2938;52.254;12.988;2022-12-18T03:30:31;91.47;;;32.83;;
5823;SDS011;2938;52.254;12.988;2022-12-18T03:33:09;84.70;;;32.78;;
5823;SDS011;2938;52.254;12.988;2022-12-18T03:35:38;80.97;;;29.25;;
5823;SDS011;2938;52.254;12.988;2022-12-18T03:38:05;78.00;;;29.10;;
5823;SDS011;2938;52.254;12.988;2022-12-18T03:43:17;89.57;;;31.10;;
5823;SDS011;2938;52.254;12.988;2022-12-18T03:45:48;78.10;;;31.15;;
5823;SDS011;2938;52.254;12.988;2022-12-18T03:48:20;68.82;;;29.67;;
5823;SDS011;2938;52.254;12.988;2022-12-18T03:50:56;85.22;;;29.30;;
5823;SDS011;2938;52.254;12.988;2022-12-18T03:56:16;81.13;;;29.30;;
5823;SDS011;2938;52.254;12.988;2022-12-18T03:58:41;96.95;;;33.03;;
5823;SDS011;2938;52.254;12.988;2022-12-18T04:01:08;81.25;;;32.60;;
5823;SDS011;2938;52.254;12.988;2022-12-18T04:03:35;104.63;;;38.28;;
5823;SDS011;2938;52.254;12.988;2022-12-18T04:06:00;96.10;;;34.67;;
5823;SDS011;2938;52.254;12.988;2022-12-18T04:08:27;80.97;;;33.13;;
5823;SDS011;2938;52.254;12.988;2022-12-18T04:10:52;89.72;;;33.80;;
5823;SDS011;2938;52.254;12.988;2022-12-18T04:13:24;91.75;;;32.47;;
5823;SDS011;2938;52.254;12.988;2022-12-18T04:15:53;90.82;;;35.30;;
5823;SDS011;2938;52.254;12.988;2022-12-18T04:18:18;74.22;;;29.80;;
5823;SDS011;2938;52.254;12.988;2022-12-18T04:20:44;75.28;;;31.00;;
5823;SDS011;2938;52.254;12.988;2022-12-18T04:23:09;88.85;;;32.17;;
5823;SDS011;2938;52.254;12.988;2022-12-18T04:25:34;91.35;;;32.22;;
5823;SDS011;2938;52.254;12.988;2022-12-18T04:28:00;82.60;;;32.30;;
5823;SDS011;2938;52.254;12.988;2022-12-18T04:30:25;83.30;;;30.42;;
5823;SDS011;2938;52.254;12.988;2022-12-18T04:32:50;83.90;;;33.22;;
5823;SDS011;2938;52.254;12.988;2022-12-18T04:35:16;81.75;;;31.17;;
5823;SDS011;2938;52.254;12.988;2022-12-18T04:37:41;91.05;;;30.73;;
5823;SDS011;2938;52.254;12.988;2022-12-18T04:40:06;90.38;;;29.05;;
5823;SDS011;2938;52.254;12.988;2022-12-18T04:42:32;85.68;;;30.95;;
5823;SDS011;2938;52.254;12.988;2022-12-18T04:44:57;74.05;;;27.13;;
5823;SDS011;2938;52.254;12.988;2022-12-18T04:47:23;94.45;;;33.10;;
5823;SDS011;2938;52.254;12.988;2022-12-18T04:49:48;69.88;;;27.60;;
5823;SDS011;2938;52.254;12.988;2022-12-18T04:52:13;90.07;;;31.30;;
5823;SDS011;2938;52.254;12.988;2022-12-18T04:54:39;95.07;;;33.50;;
5823;SDS011;2938;52.254;12.988;2022-12-18T04:57:04;95.05;;;33.38;;
5823;SDS011;2938;52.254;12.988;2022-12-18T04:59:30;97.22;;;33.28;;
5823;SDS011;2938;52.254;12.988;2022-12-18T05:01:55;94.15;;;32.03;;
5823;SDS011;2938;52.254;12.988;2022-12-18T05:04:20;91.43;;;33.22;;
5823;SDS011;2938;52.254;12.988;2022-12-18T05:06:45;93.38;;;36.25;;
5823;SDS011;2938;52.254;12.988;2022-12-18T05:09:11;94.93;;;31.10;;
5823;SDS011;2938;52.254;12.988;2022-12-18T05:11:36;90.22;;;34.33;;
5823;SDS011;2938;52.254;12.988;2022-12-18T05:14:01;99.40;;;37.20;;
5823;SDS011;2938;52.254;12.988;2022-12-18T05:16:27;92.68;;;34.58;;
5823;SDS011;2938;52.254;12.988;2022-12-18T05:18:52;109.85;;;36.42;;
5823;SDS011;2938;52.254;12.988;2022-12-18T05:21:17;102.03;;;39.03;;
5823;SDS011;2938;52.254;12.988;2022-12-18T05:23:43;108.97;;;40.97;;
5823;SDS011;2938;52.254;12.988;2022-12-18T05:26:08;94.88;;;39.38;;
5823;SDS011;2938;52.254;12.988;2022-12-18T05:28:34;93.55;;;39.20;;
5823;SDS011;2938;52.254;12.988;2022-12-18T05:31:01;116.07;;;38.22;;
5823;SDS011;2938;52.254;12.988;2022-12-18T05:33:30;89.63;;;34.78;;
5823;SDS011;2938;52.254;12.988;2022-12-18T05:35:58;90.40;;;40.42;;
5823;SDS011;2938;52.254;12.988;2022-12-18T05:38:29;89.85;;;35.42;;
5823;SDS011;2938;52.254;12.988;2022-12-18T05:40:55;102.55;;;40.33;;
5823;SDS011;2938;52.254;12.988;2022-12-18T05:43:21;104.13;;;37.20;;
5823;SDS011;2938;52.254;12.988;2022-12-18T05:45:47;120.72;;;39.65;;
5823;SDS011;2938;52.254;12.988;2022-12-18T05:48:13;109.10;;;38.97;;
5823;SDS011;2938;52.254;12.988;2022-12-18T05:50:39;92.00;;;39.15;;
5823;SDS011;2938;52.254;12.988;2022-12-18T05:53:06;112.07;;;42.95;;
5823;SDS011;2938;52.254;12.988;2022-12-18T05:55:35;105.00;;;40.22;;
5823;SDS011;2938;52.254;12.988;2022-12-18T05:58:02;119.68;;;43.17;;
5823;SDS011;2938;52.254;12.988;2022-12-18T06:00:28;100.43;;;36.88;;
5823;SDS011;2938;52.254;12.988;2022-12-18T06:02:54;105.55;;;37.45;;
5823;SDS011;2938;52.254;12.988;2022-12-18T06:05:19;108.25;;;43.08;;
5823;SDS011;2938;52.254;12.988;2022-12-18T06:07:45;103.03;;;39.53;;
5823;SDS011;2938;52.254;12.988;2022-12-18T06:10:10;93.30;;;38.88;;
5823;SDS011;2938;52.254;12.988;2022-12-18T06:12:36;102.78;;;42.67;;
5823;SDS011;2938;52.254;12.988;2022-12-18T06:15:01;97.13;;;40.63;;
5823;SDS011;2938;52.254;12.988;2022-12-18T06:17:27;110.78;;;40.22;;
5823;SDS011;2938;52.254;12.988;2022-12-18T06:19:54;100.55;;;36.92;;
5823;SDS011;2938;52.254;12.988;2022-12-18T06:22:20;110.05;;;40.60;;
5823;SDS011;2938;52.254;12.988;2022-12-18T06:24:45;96.03;;;37.47;;
5823;SDS011;2938;52.254;12.988;2022-12-18T06:27:10;106.15;;;39.75;;
5823;SDS011;2938;52.254;12.988;2022-12-18T06:29:36;99.63;;;38.75;;
5823;SDS011;2938;52.254;12.988;2022-12-18T06:32:01;113.13;;;42.05;;
5823;SDS011;2938;52.254;12.988;2022-12-18T06:34:26;122.60;;;40.85;;
5823;SDS011;2938;52.254;12.988;2022-12-18T06:36:51;97.68;;;39.30;;
5823;SDS011;2938;52.254;12.988;2022-12-18T06:39:17;95.38;;;38.78;;
5823;SDS011;2938;52.254;12.988;2022-12-18T06:41:42;94.03;;;39.78;;
5823;SDS011;2938;52.254;12.988;2022-12-18T06:44:07;91.63;;;35.42;;
5823;SDS011;2938;52.254;12.988;2022-12-18T06:46:33;109.93;;;40.75;;
5823;SDS011;2938;52.254;12.988;2022-12-18T06:48:58;104.07;;;33.05;;
5823;SDS011;2938;52.254;12.988;2022-12-18T06:51:23;91.38;;;35.95;;
5823;SDS011;2938;52.254;12.988;2022-12-18T06:53:49;91.30;;;33.83;;
5823;SDS011;2938;52.254;12.988;2022-12-18T06:56:14;89.20;;;37.15;;
5823;SDS011;2938;52.254;12.988;2022-12-18T06:58:40;80.55;;;32.80;;
5823;SDS011;2938;52.254;12.988;2022-12-18T07:01:06;82.72;;;35.40;;
5823;SDS011;2938;52.254;12.988;2022-12-18T07:03:33;85.28;;;36.00;;
5823;SDS011;2938;52.254;12.988;2022-12-18T07:06:00;74.60;;;33.90;;
5823;SDS011;2938;52.254;12.988;2022-12-18T07:08:25;87.85;;;34.47;;
5823;SDS011;2938;52.254;12.988;2022-12-18T07:10:50;74.80;;;28.88;;
5823;SDS011;2938;52.254;12.988;2022-12-18T07:13:16;77.38;;;34.05;;
5823;SDS011;2938;52.254;12.988;2022-12-18T07:15:42;70.50;;;30.10;;
5823;SDS011;2938;52.254;12.988;2022-12-18T07:18:08;71.50;;;33.03;;
5823;SDS011;2938;52.254;12.988;2022-12-18T07:20:33;93.10;;;36.95;;
5823;SDS011;2938;52.254;12.988;2022-12-18T07:23:02;102.18;;;38.53;;
5823;SDS011;2938;52.254;12.988;2022-12-18T07:25:30;83.78;;;36.63;;
5823;SDS011;2938;52.254;12.988;2022-12-18T07:27:55;98.35;;;35.78;;
5823;SDS011;2938;52.254;12.988;2022-12-18T07:30:20;82.55;;;30.65;;
5823;SDS011;2938;52.254;12.988;2022-12-18T07:32:46;89.22;;;33.15;;
5823;SDS011;2938;52.254;12.988;2022-12-18T07:35:14;98.15;;;34.45;;
5823;SDS011;2938;52.254;12.988;2022-12-18T07:37:40;97.75;;;36.83;;
5823;SDS011;2938;52.254;12.988;2022-12-18T07:40:05;92.57;;;33.88;;
5823;SDS011;2938;52.254;12.988;2022-12-18T07:42:31;86.75;;;37.88;;
5823;SDS011;2938;52.254;12.988;2022-12-18T07:44:57;81.32;;;35.55;;
5823;SDS011;2938;52.254;12.988;2022-12-18T07:47:26;98.47;;;37.53;;
5823;SDS011;2938;52.254;12.988;2022-12-18T07:49:51;93.25;;;36.28;;
5823;SDS011;2938;52.254;12.988;2022-12-18T07:52:17;90.30;;;38.40;;
5823;SDS011;2938;52.254;12.988;2022-12-18T07:54:42;96.10;;;38.00;;
5823;SDS011;2938;52.254;12.988;2022-12-18T07:57:07;80.32;;;35.38;;
5823;SDS011;2938;52.254;12.988;2022-12-18T07:59:33;83.65;;;34.63;;
5823;SDS011;2938;52.254;12.988;2022-12-18T08:01:59;95.93;;;37.20;;
5823;SDS011;2938;52.254;12.988;2022-12-18T08:04:24;81.07;;;34.17;;
5823;SDS011;2938;52.254;12.988;2022-12-18T08:06:50;98.93;;;35.45;;
5823;SDS011;2938;52.254;12.988;2022-12-18T08:09:15;77.85;;;32.85;;
5823;SDS011;2938;52.254;12.988;2022-12-18T08:11:42;71.90;;;32.65;;
5823;SDS011;2938;52.254;12.988;2022-12-18T08:14:08;84.57;;;35.15;;
5823;SDS011;2938;52.254;12.988;2022-12-18T08:16:33;73.20;;;35.55;;
5823;SDS011;2938;52.254;12.988;2022-12-18T08:18:59;91.00;;;35.38;;
5823;SDS011;2938;52.254;12.988;2022-12-18T08:21:25;98.55;;;35.55;;
5823;SDS011;2938;52.254;12.988;2022-12-18T08:23:53;87.07;;;35.35;;
5823;SDS011;2938;52.254;12.988;2022-12-18T08:26:20;82.22;;;33.13;;
5823;SDS011;2938;52.254;12.988;2022-12-18T08:28:45;88.68;;;32.70;;
5823;SDS011;2938;52.254;12.988;2022-12-18T08:31:11;87.90;;;36.05;;
5823;SDS011;2938;52.254;12.988;2022-12-18T08:33:36;86.25;;;36.67;;
5823;SDS011;2938;52.254;12.988;2022-12-18T08:36:02;91.90;;;34.78;;
5823;SDS011;2938;52.254;12.988;2022-12-18T08:38:28;79.10;;;32.38;;
5823;SDS011;2938;52.254;12.988;2022-12-18T08:40:58;87.90;;;36.28;;
5823;SDS011;2938;52.254;12.988;2022-12-18T08:43:34;63.58;;;32.92;;
5823;SDS011;2938;52.254;12.988;2022-12-18T08:46:19;70.20;;;29.80;;
5823;SDS011;2938;52.254;12.988;2022-12-18T08:48:45;72.30;;;31.63;;
5823;SDS011;2938;52.254;12.988;2022-12-18T08:51:10;65.72;;;27.88;;
5823;SDS011;2938;52.254;12.988;2022-12-18T08:53:36;80.30;;;35.38;;
5823;SDS011;2938;52.254;12.988;2022-12-18T08:56:02;87.18;;;32.22;;
5823;SDS011;2938;52.254;12.988;2022-12-18T08:58:28;63.25;;;30.08;;
5823;SDS011;2938;52.254;12.988;2022-12-18T09:00:53;73.88;;;30.88;;
5823;SDS011;2938;52.254;12.988;2022-12-18T09:03:19;72.20;;;33.67;;
5823;SDS011;2938;52.254;12.988;2022-12-18T09:05:47;58.95;;;26.35;;
5823;SDS011;2938;52.254;12.988;2022-12-18T09:08:13;71.53;;;33.45;;
5823;SDS011;2938;52.254;12.988;2022-12-18T09:10:41;65.78;;;26.90;;
5823;SDS011;2938;52.254;12.988;2022-12-18T09:13:09;77.53;;;31.75;;
5823;SDS011;2938;52.254;12.988;2022-12-18T09:15:39;75.45;;;32.40;;
5823;SDS011;2938;52.254;12.988;2022-12-18T09:18:05;68.17;;;30.87;;
5823;SDS011;2938;52.254;12.988;2022-12-18T09:20:31;80.20;;;35.67;;
5823;SDS011;2938;52.254;12.988;2022-12-18T09:22:56;80.10;;;34.70;;
5823;SDS011;2938;52.254;12.988;2022-12-18T09:25:22;77.28;;;32.10;;
5823;SDS011;2938;52.254;12.988;2022-12-18T09:27:47;62.47;;;28.00;;
5823;SDS011;2938;52.254;12.988;2022-12-18T09:30:13;65.05;;;28.30;;
5823;SDS011;2938;52.254;12.988;2022-12-18T09:32:38;71.15;;;34.13;;
5823;SDS011;2938;52.254;12.988;2022-12-18T09:35:03;63.53;;;28.13;;
5823;SDS011;2938;52.254;12.988;2022-12-18T09:37:29;75.90;;;31.58;;
5823;SDS011;2938;52.254;12.988;2022-12-18T09:39:54;59.17;;;28.15;;
5823;SDS011;2938;52.254;12.988;2022-12-18T09:42:20;79.68;;;34.08;;
5823;SDS011;2938;52.254;12.988;2022-12-18T09:44:53;76.38;;;33.65;;
5823;SDS011;2938;52.254;12.988;2022-12-18T09:47:21;73.05;;;34.22;;
5823;SDS011;2938;52.254;12.988;2022-12-18T09:49:49;76.15;;;33.67;;
5823;SDS011;2938;52.254;12.988;2022-12-18T09:55:01;61.05;;;27.42;;
5823;SDS011;2938;52.254;12.988;2022-12-18T09:57:29;57.85;;;26.63;;
5823;SDS011;2938;52.254;12.988;2022-12-18T10:00:30;70.35;;;35.35;;
5823;SDS011;2938;52.254;12.988;2022-12-18T10:02:55;73.13;;;31.52;;
5823;SDS011;2938;52.254;12.988;2022-12-18T10:08:18;68.07;;;31.25;;
5823;SDS011;2938;52.254;12.988;2022-12-18T10:10:52;59.50;;;26.02;;
5823;SDS011;2938;52.254;12.988;2022-12-18T10:13:21;63.78;;;23.52;;
5823;SDS011;2938;52.254;12.988;2022-12-18T10:15:51;63.80;;;27.95;;
5823;SDS011;2938;52.254;12.988;2022-12-18T10:21:15;63.65;;;23.75;;
5823;SDS011;2938;52.254;12.988;2022-12-18T10:23:47;54.93;;;24.57;;
5823;SDS011;2938;52.254;12.988;2022-12-18T10:26:22;71.10;;;30.13;;
5823;SDS011;2938;52.254;12.988;2022-12-18T10:28:47;71.20;;;32.65;;
5823;SDS011;2938;52.254;12.988;2022-12-18T10:31:14;69.63;;;30.58;;
5823;SDS011;2938;52.254;12.988;2022-12-18T10:33:41;58.58;;;25.10;;
5823;SDS011;2938;52.254;12.988;2022-12-18T10:36:07;59.63;;;27.77;;
5823;SDS011;2938;52.254;12.988;2022-12-18T10:38:32;67.10;;;32.13;;
5823;SDS011;2938;52.254;12.988;2022-12-18T10:41:02;55.50;;;25.08;;
5823;SDS011;2938;52.254;12.988;2022-12-18T10:43:36;55.88;;;25.83;;
5823;SDS011;2938;52.254;12.988;2022-12-18T10:51:18;69.18;;;29.58;;
5823;SDS011;2938;52.254;12.988;2022-12-18T10:54:17;62.55;;;30.40;;
5823;SDS011;2938;52.254;12.988;2022-12-18T10:56:46;66.78;;;28.85;;
5823;SDS011;2938;52.254;12.988;2022-12-18T10:59:13;57.05;;;25.83;;
5823;SDS011;2938;52.254;12.988;2022-12-18T11:01:58;56.60;;;25.58;;
5823;SDS011;2938;52.254;12.988;2022-12-18T11:04:24;61.00;;;23.58;;
5823;SDS011;2938;52.254;12.988;2022-12-18T11:06:55;55.90;;;23.80;;
5823;SDS011;2938;52.254;12.988;2022-12-18T11:09:22;47.72;;;25.73;;
5823;SDS011;2938;52.254;12.988;2022-12-18T11:11:50;55.15;;;23.98;;
5823;SDS011;2938;52.254;12.988;2022-12-18T11:14:27;50.40;;;26.02;;
5823;SDS011;2938;52.254;12.988;2022-12-18T11:16:54;58.03;;;25.23;;
5823;SDS011;2938;52.254;12.988;2022-12-18T11:19:33;50.92;;;22.50;;
5823;SDS011;2938;52.254;12.988;2022-12-18T11:22:01;57.65;;;23.98;;
5823;SDS011;2938;52.254;12.988;2022-12-18T11:24:42;44.90;;;23.30;;
5823;SDS011;2938;52.254;12.988;2022-12-18T11:27:15;51.08;;;24.05;;
5823;SDS011;2938;52.254;12.988;2022-12-18T11:29:42;54.17;;;24.52;;
5823;SDS011;2938;52.254;12.988;2022-12-18T11:34:40;65.55;;;22.10;;
5823;SDS011;2938;52.254;12.988;2022-12-18T11:37:07;48.47;;;22.77;;
5823;SDS011;2938;52.254;12.988;2022-12-18T11:39:56;55.05;;;26.20;;
5823;SDS011;2938;52.254;12.988;2022-12-18T11:42:24;61.28;;;25.55;;
5823;SDS011;2938;52.254;12.988;2022-12-18T11:47:48;54.13;;;21.98;;
5823;SDS011;2938;52.254;12.988;2022-12-18T11:50:23;56.45;;;24.05;;
5823;SDS011;2938;52.254;12.988;2022-12-18T11:53:01;49.88;;;24.48;;
5823;SDS011;2938;52.254;12.988;2022-12-18T11:55:35;53.55;;;23.55;;
5823;SDS011;2938;52.254;12.988;2022-12-18T12:00:58;57.53;;;25.10;;
5823;SDS011;2938;52.254;12.988;2022-12-18T12:06:35;35.00;;;20.17;;
5823;SDS011;2938;52.254;12.988;2022-12-18T12:09:24;46.72;;;22.60;;
5823;SDS011;2938;52.254;12.988;2022-12-18T12:12:10;54.25;;;21.77;;
5823;SDS011;2938;52.254;12.988;2022-12-18T12:17:42;47.00;;;20.00;;
5823;SDS011;2938;52.254;12.988;2022-12-18T12:20:39;43.95;;;21.88;;
5823;SDS011;2938;52.254;12.988;2022-12-18T12:26:01;50.78;;;24.10;;
5823;SDS011;2938;52.254;12.988;2022-12-18T12:31:30;28.25;;;14.43;;
5823;SDS011;2938;52.254;12.988;2022-12-18T12:37:31;48.85;;;21.98;;
5823;SDS011;2938;52.254;12.988;2022-12-18T12:40:11;42.35;;;19.60;;
5823;SDS011;2938;52.254;12.988;2022-12-18T12:42:39;60.13;;;26.15;;
5823;SDS011;2938;52.254;12.988;2022-12-18T12:45:48;50.58;;;22.77;;
5823;SDS011;2938;52.254;12.988;2022-12-18T12:48:15;50.92;;;25.50;;
5823;SDS011;2938;52.254;12.988;2022-12-18T12:50:42;42.97;;;20.48;;
5823;SDS011;2938;52.254;12.988;2022-12-18T12:53:09;45.83;;;22.23;;
5823;SDS011;2938;52.254;12.988;2022-12-18T12:55:44;46.85;;;23.88;;
5823;SDS011;2938;52.254;12.988;2022-12-18T13:06:23;49.00;;;22.33;;
5823;SDS011;2938;52.254;12.988;2022-12-18T13:08:58;47.22;;;19.90;;
5823;SDS011;2938;52.254;12.988;2022-12-18T13:14:26;36.85;;;18.85;;
5823;SDS011;2938;52.254;12.988;2022-12-18T13:19:41;42.88;;;21.27;;
5823;SDS011;2938;52.254;12.988;2022-12-18T13:22:22;46.20;;;21.58;;
5823;SDS011;2938;52.254;12.988;2022-12-18T13:24:49;49.13;;;23.10;;
5823;SDS011;2938;52.254;12.988;2022-12-18T13:43:45;47.67;;;21.73;;
5823;SDS011;2938;52.254;12.988;2022-12-18T13:46:21;39.17;;;20.40;;
5823;SDS011;2938;52.254;12.988;2022-12-18T13:49:05;40.03;;;20.95;;
5823;SDS011;2938;52.254;12.988;2022-12-18T13:51:41;43.20;;;19.20;;
5823;SDS011;2938;52.254;12.988;2022-12-18T13:54:27;46.10;;;24.30;;
5823;SDS011;2938;52.254;12.988;2022-12-18T13:56:55;46.83;;;21.05;;
5823;SDS011;2938;52.254;12.988;2022-12-18T13:59:22;53.13;;;22.30;;
5823;SDS011;2938;52.254;12.988;2022-12-18T14:04:25;53.40;;;23.90;;
5823;SDS011;2938;52.254;12.988;2022-12-18T14:07:00;42.83;;;22.00;;
5823;SDS011;2938;52.254;12.988;2022-12-18T14:09:34;46.45;;;22.05;;
5823;SDS011;2938;52.254;12.988;2022-12-18T14:12:01;43.47;;;21.90;;
5823;SDS011;2938;52.254;12.988;2022-12-18T14:14:47;47.38;;;24.33;;
5823;SDS011;2938;52.254;12.988;2022-12-18T14:17:14;53.03;;;25.40;;
5823;SDS011;2938;52.254;12.988;2022-12-18T14:19:43;49.75;;;23.48;;
5823;SDS011;2938;52.254;12.988;2022-12-18T14:22:17;48.05;;;22.85;;
5823;SDS011;2938;52.254;12.988;2022-12-18T14:24:44;46.17;;;21.98;;
5823;SDS011;2938;52.254;12.988;2022-12-18T14:27:24;51.85;;;25.30;;
5823;SDS011;2938;52.254;12.988;2022-12-18T14:29:50;65.15;;;35.17;;
5823;SDS011;2938;52.254;12.988;2022-12-18T14:32:17;55.90;;;33.20;;
5823;SDS011;2938;52.254;12.988;2022-12-18T14:34:44;44.20;;;24.90;;
5823;SDS011;2938;52.254;12.988;2022-12-18T14:37:15;51.42;;;24.55;;
5823;SDS011;2938;52.254;12.988;2022-12-18T14:39:51;49.33;;;23.38;;
5823;SDS011;2938;52.254;12.988;2022-12-18T14:42:21;42.97;;;21.38;;
5823;SDS011;2938;52.254;12.988;2022-12-18T14:44:47;45.80;;;20.55;;
5823;SDS011;2938;52.254;12.988;2022-12-18T14:47:13;43.78;;;21.20;;
5823;SDS011;2938;52.254;12.988;2022-12-18T14:49:40;49.17;;;21.08;;
5823;SDS011;2938;52.254;12.988;2022-12-18T14:52:13;52.58;;;24.58;;
5823;SDS011;2938;52.254;12.988;2022-12-18T14:54:53;51.72;;;27.95;;
5823;SDS011;2938;52.254;12.988;2022-12-18T14:57:22;41.13;;;21.10;;
5823;SDS011;2938;52.254;12.988;2022-12-18T14:59:49;55.95;;;28.67;;
5823;SDS011;2938;52.254;12.988;2022-12-18T15:02:18;47.03;;;21.77;;
5823;SDS011;2938;52.254;12.988;2022-12-18T15:04:48;52.10;;;23.60;;
5823;SDS011;2938;52.254;12.988;2022-12-18T15:07:25;38.28;;;20.17;;
5823;SDS011;2938;52.254;12.988;2022-12-18T15:10:09;56.72;;;25.42;;
5823;SDS011;2938;52.254;12.988;2022-12-18T15:12:37;41.40;;;20.45;;
5823;SDS011;2938;52.254;12.988;2022-12-18T15:20:32;45.70;;;23.40;;
5823;SDS011;2938;52.254;12.988;2022-12-18T15:23:05;47.40;;;24.20;;
5823;SDS011;2938;52.254;12.988;2022-12-18T15:25:37;59.78;;;25.58;;
5823;SDS011;2938;52.254;12.988;2022-12-18T15:28:03;40.10;;;20.95;;
5823;SDS011;2938;52.254;12.988;2022-12-18T15:30:29;59.53;;;28.35;;
5823;SDS011;2938;52.254;12.988;2022-12-18T15:35:57;49.67;;;22.40;;
5823;SDS011;2938;52.254;12.988;2022-12-18T15:38:23;60.28;;;27.92;;
5823;SDS011;2938;52.254;12.988;2022-12-18T15:40:48;48.72;;;24.63;;
5823;SDS011;2938;52.254;12.988;2022-12-18T15:43:13;36.85;;;17.48;;
5823;SDS011;2938;52.254;12.988;2022-12-18T15:45:57;56.45;;;23.58;;
5823;SDS011;2938;52.254;12.988;2022-12-18T15:48:22;45.47;;;21.88;;
5823;SDS011;2938;52.254;12.988;2022-12-18T15:50:51;56.05;;;24.00;;
5823;SDS011;2938;52.254;12.988;2022-12-18T15:53:18;54.10;;;29.83;;
5823;SDS011;2938;52.254;12.988;2022-12-18T15:55:43;50.42;;;23.40;;
5823;SDS011;2938;52.254;12.988;2022-12-18T15:58:27;60.50;;;24.02;;
5823;SDS011;2938;52.254;12.988;2022-12-18T16:00:52;57.30;;;28.15;;
5823;SDS011;2938;52.254;12.988;2022-12-18T16:03:19;45.78;;;25.02;;
5823;SDS011;2938;52.254;12.988;2022-12-18T16:05:44;49.95;;;26.17;;
5823;SDS011;2938;52.254;12.988;2022-12-18T16:08:10;53.15;;;24.48;;
5823;SDS011;2938;52.254;12.988;2022-12-18T16:10:35;47.85;;;23.70;;
5823;SDS011;2938;52.254;12.988;2022-12-18T16:13:00;47.63;;;25.20;;
5823;SDS011;2938;52.254;12.988;2022-12-18T16:15:26;54.28;;;25.88;;
5823;SDS011;2938;52.254;12.988;2022-12-18T16:17:51;50.65;;;27.20;;
5823;SDS011;2938;52.254;12.988;2022-12-18T16:20:18;65.00;;;29.55;;
5823;SDS011;2938;52.254;12.988;2022-12-18T16:22:45;60.55;;;28.92;;
5823;SDS011;2938;52.254;12.988;2022-12-18T16:25:21;51.63;;;25.20;;